Time;durP1;ratioP1;P1;durP2;ratioP2;P2;SDS_P1;SDS_P2;PMS_P1;PMS_P2;Temp;Humidity;BMP_temperature;BMP_pressure;BME280_temperature;BME280_humidity;BME280_pressure;Samples;Min_cycle;Max_cycle;Signal;HPM_P1;HPM_P2
2020/12/17 00:01:35;;;;;;;31.67;12.93;;;;;;;5.94;76.17;95413.09;5012372;28;20262;-75
2020/12/17 00:04:00;;;;;;;27.47;13.13;;;;;;;5.94;75.97;95419.16;5012555;28;20649;-73
2020/12/17 00:06:26;;;;;;;31.13;14.40;;;;;;;5.91;75.47;95419.78;5012006;28;20272;-73
2020/12/17 00:08:51;;;;;;;29.97;12.70;;;;;;;5.93;75.80;95414.19;5012254;28;20257;-73
2020/12/17 00:11:17;;;;;;;27.83;13.40;;;;;;;6.05;75.91;95420.50;5012441;28;20201;-77
2020/12/17 00:13:43;;;;;;;30.10;13.93;;;;;;;6.14;75.18;95425.06;4993314;28;20177;-74
2020/12/17 00:16:09;;;;;;;32.07;14.23;;;;;;;5.92;75.46;95421.34;5025167;28;20200;-78
2020/12/17 00:18:35;;;;;;;30.90;14.43;;;;;;;5.90;75.78;95420.06;5012237;28;20177;-73
2020/12/17 00:21:00;;;;;;;35.50;15.20;;;;;;;5.87;76.53;95415.34;5012188;28;20575;-73
2020/12/17 00:23:26;;;;;;;31.70;15.53;;;;;;;5.95;76.22;95423.41;5011867;28;20302;-73
2020/12/17 00:25:51;;;;;;;29.03;14.20;;;;;;;5.87;76.17;95421.44;5011886;28;20556;-72
2020/12/17 00:28:17;;;;;;;33.23;15.80;;;;;;;5.89;75.44;95423.78;5011732;28;20220;-72
2020/12/17 00:30:42;;;;;;;38.90;15.50;;;;;;;5.82;76.18;95424.19;5012121;28;20169;-73
2020/12/17 00:33:08;;;;;;;37.47;16.00;;;;;;;5.88;76.37;95423.00;5012151;28;20230;-73
2020/12/17 00:35:33;;;;;;;37.33;15.30;;;;;;;5.74;77.06;95415.13;5012061;28;20165;-74
2020/12/17 00:37:59;;;;;;;29.20;14.67;;;;;;;5.70;77.03;95414.16;5011923;28;20228;-73
2020/12/17 00:40:24;;;;;;;29.47;15.07;;;;;;;5.82;76.52;95424.19;5011875;28;20664;-75
2020/12/17 00:42:50;;;;;;;38.03;16.10;;;;;;;5.63;77.62;95420.97;5011947;28;20180;-73
2020/12/17 00:45:15;;;;;;;32.70;14.50;;;;;;;5.75;77.22;95424.63;5010615;28;20204;-73
2020/12/17 00:47:41;;;;;;;28.20;13.50;;;;;;;5.93;76.39;95419.47;5012006;28;20177;-73
2020/12/17 00:50:07;;;;;;;32.20;14.50;;;;;;;6.06;76.07;95418.63;5011785;28;20176;-75
2020/12/17 00:52:39;;;;;;;32.87;15.90;;;;;;;6.11;76.11;95423.78;5011973;28;20608;-73
2020/12/17 00:55:05;;;;;;;32.30;15.03;;;;;;;5.90;76.56;95428.03;5010932;28;20614;-74
2020/12/17 00:57:31;;;;;;;29.37;13.80;;;;;;;5.95;76.88;95419.94;5010645;28;21138;-76
2020/12/17 00:59:56;;;;;;;30.87;15.10;;;;;;;5.99;76.88;95419.03;5011536;28;20583;-74
2020/12/17 01:02:22;;;;;;;32.47;15.33;;;;;;;6.09;76.34;95420.69;5012041;28;20559;-76
2020/12/17 01:04:48;;;;;;;37.33;14.57;;;;;;;6.07;76.73;95418.34;5011943;28;20278;-75
2020/12/17 01:07:13;;;;;;;30.77;14.37;;;;;;;6.07;76.18;95420.22;5011436;28;20177;-76
2020/12/17 01:09:39;;;;;;;34.37;15.63;;;;;;;5.75;77.64;95432.56;5011731;28;20638;-73
2020/12/17 01:12:06;;;;;;;29.73;14.30;;;;;;;5.99;77.23;95426.22;5010349;28;20188;-75
2020/12/17 01:14:32;;;;;;;33.83;13.43;;;;;;;5.90;77.01;95420.84;5011741;28;20169;-75
2020/12/17 01:16:57;;;;;;;32.03;13.97;;;;;;;6.03;77.06;95424.53;5011579;28;20956;-77
2020/12/17 01:19:23;;;;;;;32.60;14.33;;;;;;;5.92;77.23;95418.69;5011786;28;20173;-76
2020/12/17 01:21:51;;;;;;;29.80;14.70;;;;;;;5.91;77.09;95425.09;5011690;28;20176;-76
2020/12/17 01:24:17;;;;;;;33.27;14.20;;;;;;;5.94;76.95;95416.50;5010653;28;20286;-76
2020/12/17 01:26:42;;;;;;;32.53;14.97;;;;;;;5.71;77.18;95399.81;5011469;28;20639;-75
2020/12/17 01:29:08;;;;;;;28.20;15.13;;;;;;;5.84;76.75;95408.81;5011608;28;20193;-74
2020/12/17 01:31:33;;;;;;;28.07;12.63;;;;;;;5.82;77.13;95421.56;5011578;28;20173;-74
2020/12/17 01:33:59;;;;;;;31.87;12.93;;;;;;;5.80;77.33;95419.22;5011227;28;20177;-73
2020/12/17 01:36:24;;;;;;;34.73;13.63;;;;;;;5.82;76.80;95416.25;5011414;28;20656;-75
2020/12/17 01:38:50;;;;;;;34.77;14.70;;;;;;;5.83;77.36;95420.47;5011153;28;20192;-75
2020/12/17 01:41:15;;;;;;;33.10;15.17;;;;;;;5.61;77.91;95415.16;5011633;28;20205;-74
2020/12/17 01:43:42;;;;;;;34.63;14.63;;;;;;;5.74;77.60;95411.69;5011055;28;20193;-73
2020/12/17 01:46:08;;;;;;;36.53;14.93;;;;;;;5.80;77.95;95405.97;5011416;28;20173;-74
2020/12/17 01:48:34;;;;;;;37.00;15.60;;;;;;;5.78;77.81;95412.63;5011203;28;20583;-75
2020/12/17 01:50:59;;;;;;;31.43;15.03;;;;;;;5.91;77.17;95400.44;5010260;28;20694;-74
2020/12/17 01:53:25;;;;;;;31.07;14.70;;;;;;;5.63;78.34;95402.41;5011515;28;20308;-75
2020/12/17 01:55:53;;;;;;;39.60;16.60;;;;;;;5.81;77.80;95407.53;5011317;28;20165;-75
2020/12/17 01:58:21;;;;;;;35.73;15.40;;;;;;;5.92;77.41;95402.78;4994064;28;20184;-73
2020/12/17 02:00:47;;;;;;;37.70;16.40;;;;;;;5.89;77.79;95399.94;5009968;28;20614;-75
2020/12/17 02:03:12;;;;;;;34.57;15.33;;;;;;;5.90;77.58;95409.47;5010101;28;21166;-75
2020/12/17 02:05:38;;;;;;;33.53;14.47;;;;;;;6.00;76.88;95412.66;4993745;28;20165;-74
2020/12/17 02:08:06;;;;;;;30.93;14.77;;;;;;;6.12;76.58;95403.38;5014205;28;20553;-75
2020/12/17 02:10:31;;;;;;;36.00;14.80;;;;;;;6.05;76.65;95399.28;4997468;28;20173;-74
2020/12/17 02:12:57;;;;;;;33.03;14.73;;;;;;;6.10;77.02;95401.03;5014721;28;20631;-74
2020/12/17 02:15:22;;;;;;;41.40;16.70;;;;;;;5.94;77.22;95397.19;5014643;28;20553;-74
2020/12/17 02:17:48;;;;;;;33.47;14.23;;;;;;;5.89;78.04;95400.69;5014537;28;20181;-75
2020/12/17 02:20:13;;;;;;;33.93;15.83;;;;;;;5.77;78.56;95405.78;5014469;28;20256;-73
2020/12/17 02:22:40;;;;;;;40.63;16.87;;;;;;;5.72;78.60;95403.25;5014455;28;20212;-75
2020/12/17 02:25:07;;;;;;;39.57;16.43;;;;;;;5.82;77.90;95395.84;5013426;28;20219;-73
2020/12/17 02:27:33;;;;;;;43.13;16.83;;;;;;;5.93;78.27;95400.94;5014082;28;21003;-75
2020/12/17 02:29:58;;;;;;;44.27;19.07;;;;;;;5.90;77.84;95407.59;5014426;28;20575;-74
2020/12/17 02:32:24;;;;;;;50.50;18.40;;;;;;;6.00;77.69;95396.75;5014167;28;20181;-74
2020/12/17 02:34:49;;;;;;;41.53;16.30;;;;;;;5.87;77.64;95383.56;5014336;28;20262;-72
2020/12/17 02:37:15;;;;;;;43.23;16.67;;;;;;;5.91;77.92;95385.34;5013818;28;20180;-73
2020/12/17 02:39:41;;;;;;;39.47;17.87;;;;;;;5.95;77.92;95386.28;5013864;28;20652;-74
2020/12/17 02:42:06;;;;;;;40.97;16.37;;;;;;;5.99;78.18;95391.75;5014060;28;20213;-74
2020/12/17 02:44:32;;;;;;;36.40;16.53;;;;;;;5.88;77.69;95371.84;5014118;28;20319;-74
2020/12/17 02:46:57;;;;;;;43.63;16.53;;;;;;;5.88;77.81;95393.84;5014063;28;20176;-73
2020/12/17 02:49:23;;;;;;;36.87;14.93;;;;;;;5.86;77.76;95393.38;5013777;28;20173;-73
2020/12/17 02:51:48;;;;;;;34.80;15.77;;;;;;;5.77;78.65;95387.22;5012563;28;20176;-74
2020/12/17 02:54:14;;;;;;;38.67;16.00;;;;;;;5.86;78.26;95376.69;5013427;28;20177;-73
2020/12/17 02:56:39;;;;;;;40.37;14.90;;;;;;;5.97;77.45;95383.34;5012593;28;20650;-76
2020/12/17 02:59:05;;;;;;;36.87;15.40;;;;;;;5.85;77.74;95389.16;5013505;28;20705;-74
2020/12/17 03:01:30;;;;;;;42.43;15.50;;;;;;;6.06;77.59;95386.81;5013621;28;20204;-75
2020/12/17 03:03:56;;;;;;;35.80;14.13;;;;;;;6.06;77.05;95395.56;5013454;28;20276;-75
2020/12/17 03:06:21;;;;;;;36.87;13.57;;;;;;;6.03;77.54;95396.16;5013830;28;20177;-75
2020/12/17 03:08:47;;;;;;;36.33;16.90;;;;;;;6.04;77.64;95399.59;5013504;28;20172;-74
2020/12/17 03:11:12;;;;;;;38.47;15.57;;;;;;;6.02;77.53;95397.25;5013487;28;20642;-75
2020/12/17 03:13:38;;;;;;;42.23;15.07;;;;;;;5.95;78.51;95398.75;5013563;28;20173;-75
2020/12/17 03:16:03;;;;;;;40.17;15.03;;;;;;;5.94;78.45;95403.25;5013322;28;20165;-75
2020/12/17 03:18:29;;;;;;;40.80;15.67;;;;;;;5.84;78.38;95398.19;5013064;28;20199;-75
2020/12/17 03:20:55;;;;;;;40.53;16.63;;;;;;;5.91;78.45;95395.94;5013248;28;20169;-73
2020/12/17 03:23:21;;;;;;;40.83;16.20;;;;;;;6.13;77.99;95389.81;5013295;28;20219;-75
2020/12/17 03:25:46;;;;;;;48.20;16.77;;;;;;;6.04;78.08;95399.59;5012844;28;20169;-75
2020/12/17 03:28:12;;;;;;;42.90;16.43;;;;;;;6.13;77.42;95397.00;5013282;28;20590;-75
2020/12/17 03:30:37;;;;;;;45.10;14.87;;;;;;;5.99;77.79;95400.50;5013072;28;20173;-75
2020/12/17 03:33:03;;;;;;;36.63;15.40;;;;;;;6.16;77.24;95406.97;5013273;28;20197;-74
2020/12/17 03:35:28;;;;;;;45.50;16.13;;;;;;;6.09;77.80;95405.56;5013218;28;20187;-75
2020/12/17 03:37:57;;;;;;;36.93;15.93;;;;;;;5.94;77.58;95408.56;5012949;28;20196;-75
2020/12/17 03:40:26;;;;;;;45.23;16.70;;;;;;;5.93;78.14;95414.19;5012920;28;20220;-76
2020/12/17 03:42:52;;;;;;;47.60;17.83;;;;;;;6.07;78.29;95409.59;5011457;28;20762;-74
2020/12/17 03:45:18;;;;;;;41.63;16.17;;;;;;;6.11;77.93;95410.53;5011851;28;20631;-74
2020/12/17 03:47:43;;;;;;;44.63;17.10;;;;;;;6.02;77.96;95410.50;5012631;28;20180;-75
2020/12/17 03:50:09;;;;;;;51.93;18.00;;;;;;;6.00;78.49;95419.81;5013118;28;20204;-75
2020/12/17 03:52:35;;;;;;;44.90;17.77;;;;;;;6.08;77.67;95405.84;5012682;28;20264;-75
2020/12/17 03:55:00;;;;;;;38.57;15.20;;;;;;;6.06;77.77;95408.81;5012059;28;20192;-75
2020/12/17 03:57:26;;;;;;;46.27;17.17;;;;;;;6.08;77.44;95413.81;5012477;28;20184;-75
2020/12/17 03:59:51;;;;;;;46.30;16.60;;;;;;;6.02;78.48;95421.09;5011464;28;20204;-75
2020/12/17 04:02:17;;;;;;;39.90;15.23;;;;;;;6.01;78.47;95414.25;5012839;28;20238;-74
2020/12/17 04:04:42;;;;;;;39.50;15.33;;;;;;;6.07;78.29;95410.38;5011279;28;20762;-75
2020/12/17 04:07:08;;;;;;;46.77;16.77;;;;;;;5.99;78.84;95408.44;5012490;28;20553;-74
2020/12/17 04:09:33;;;;;;;52.20;16.90;;;;;;;6.01;78.35;95418.78;5011308;28;20710;-74
2020/12/17 04:11:59;;;;;;;44.17;16.43;;;;;;;5.85;78.71;95402.41;5012628;28;20235;-75
2020/12/17 04:14:24;;;;;;;44.10;17.13;;;;;;;5.96;78.58;95405.63;5012193;28;20648;-75
2020/12/17 04:16:50;;;;;;;43.67;16.73;;;;;;;6.04;78.29;95405.66;5012480;28;20601;-75
2020/12/17 04:19:16;;;;;;;46.67;16.80;;;;;;;6.14;77.70;95411.81;5012076;28;20557;-75
2020/12/17 04:21:41;;;;;;;49.20;17.37;;;;;;;6.20;77.82;95402.66;5012453;28;20176;-75
2020/12/17 04:24:07;;;;;;;39.80;16.67;;;;;;;6.22;78.28;95411.84;5011997;28;20239;-74
2020/12/17 04:26:32;;;;;;;49.03;19.70;;;;;;;6.20;78.20;95413.25;5012282;28;20629;-75
2020/12/17 04:29:01;;;;;;;49.03;17.83;;;;;;;6.11;78.24;95394.63;5011433;28;20185;-75
2020/12/17 04:31:29;;;;;;;43.13;16.73;;;;;;;6.20;77.60;95405.31;5012026;28;20264;-74
2020/12/17 04:33:55;;;;;;;54.03;19.17;;;;;;;6.02;78.43;95409.72;5012228;28;20582;-74
2020/12/17 04:36:20;;;;;;;50.37;18.00;;;;;;;6.14;78.64;95414.47;5011848;28;20583;-75
2020/12/17 04:38:46;;;;;;;44.47;16.47;;;;;;;6.24;78.13;95406.25;5012236;28;20177;-74
2020/12/17 04:41:12;;;;;;;63.73;17.97;;;;;;;5.99;78.50;95397.06;5012019;28;20188;-74
2020/12/17 04:43:37;;;;;;;48.57;18.07;;;;;;;6.01;78.83;95406.28;5010742;28;20639;-75
2020/12/17 04:46:03;;;;;;;55.00;18.77;;;;;;;5.99;79.26;95405.78;5010522;28;20216;-75
2020/12/17 04:48:29;;;;;;;50.77;19.13;;;;;;;6.08;78.65;95406.63;5011939;28;20173;-75
2020/12/17 04:50:54;;;;;;;48.73;18.97;;;;;;;6.12;78.86;95408.66;4994096;28;20661;-75
2020/12/17 04:53:20;;;;;;;54.00;17.63;;;;;;;6.23;78.06;95412.63;5010910;28;20173;-75
2020/12/17 04:55:47;;;;;;;58.07;17.90;;;;;;;6.18;78.37;95404.84;5010696;28;20675;-75
2020/12/17 04:58:13;;;;;;;55.33;19.37;;;;;;;6.29;78.30;95411.44;4994280;28;20547;-75
2020/12/17 05:00:39;;;;;;;47.07;18.13;;;;;;;6.31;78.07;95409.25;4994521;28;20618;-74
2020/12/17 05:03:05;;;;;;;46.67;17.70;;;;;;;6.36;77.81;95411.78;5011536;28;20179;-75
2020/12/17 05:05:30;;;;;;;51.43;17.53;;;;;;;6.15;78.60;95418.69;4993913;28;21080;-75
2020/12/17 05:07:56;;;;;;;52.27;16.97;;;;;;;6.09;78.64;95415.38;5011604;28;20667;-74
2020/12/17 05:10:21;;;;;;;50.37;18.83;;;;;;;5.97;78.82;95404.53;4994736;28;20168;-74
2020/12/17 05:12:47;;;;;;;62.37;18.87;;;;;;;6.00;79.29;95414.53;5012235;28;20600;-73
2020/12/17 05:15:12;;;;;;;47.90;18.83;;;;;;;6.10;78.67;95409.75;5011827;28;20169;-74
2020/12/17 05:17:46;;;;;;;49.50;17.57;;;;;;;6.16;78.57;95417.59;5011789;28;20173;-73
2020/12/17 05:20:12;;;;;;;54.83;18.20;;;;;;;6.17;79.01;95408.53;5006115;28;20228;-74
2020/12/17 05:22:40;;;;;;;51.53;16.53;;;;;;;6.17;78.11;95411.19;5011189;28;20637;-73
2020/12/17 05:25:06;;;;;;;46.23;16.77;;;;;;;6.19;78.18;95414.34;4994349;28;20205;-75
2020/12/17 05:27:31;;;;;;;48.17;19.27;;;;;;;6.19;78.27;95411.69;4993605;28;20654;-74
2020/12/17 05:29:57;;;;;;;48.30;16.07;;;;;;;6.21;78.64;95412.94;4993685;28;20660;-75
2020/12/17 05:32:23;;;;;;;50.63;16.10;;;;;;;6.29;77.48;95414.88;5011645;28;20188;-75
2020/12/17 05:34:49;;;;;;;51.70;16.30;;;;;;;6.22;77.99;95424.31;5011353;28;20553;-75
2020/12/17 05:37:14;;;;;;;44.63;16.33;;;;;;;6.13;78.32;95421.66;5011394;28;20572;-76
2020/12/17 05:39:43;;;;;;;40.57;16.37;;;;;;;6.26;77.69;95415.47;5009822;28;20587;-75
2020/12/17 05:42:11;;;;;;;56.37;17.90;;;;;;;6.22;78.12;95417.16;5014586;28;20173;-76
2020/12/17 05:44:36;;;;;;;47.57;16.80;;;;;;;6.21;77.83;95423.56;5014564;28;20718;-74
2020/12/17 05:47:02;;;;;;;43.27;15.07;;;;;;;6.26;77.78;95427.94;5015231;28;20649;-75
2020/12/17 05:49:29;;;;;;;46.83;16.67;;;;;;;6.17;77.93;95424.44;5015171;28;20223;-74
2020/12/17 05:52:14;;;;;;;45.50;18.60;;;;;;;6.12;78.54;95432.53;5014925;28;20603;-74
2020/12/17 05:54:59;;;;;;;57.30;17.97;;;;;;;6.00;78.94;95431.22;5014523;28;20682;-75
2020/12/17 05:57:24;;;;;;;48.70;18.17;;;;;;;6.02;79.16;95439.66;5014067;28;20591;-76
2020/12/17 06:00:08;;;;;;;53.20;17.77;;;;;;;6.11;79.13;95431.75;5014639;28;21164;-76
2020/12/17 06:02:34;;;;;;;54.63;17.93;;;;;;;6.10;79.26;95441.56;5015128;28;20181;-75
2020/12/17 06:05:10;;;;;;;54.10;18.90;;;;;;;6.17;78.83;95445.66;5014756;28;20646;-78
2020/12/17 06:07:45;;;;;;;58.50;17.07;;;;;;;6.10;79.01;95443.44;4998282;28;20595;-80
2020/12/17 06:10:18;;;;;;;54.73;18.10;;;;;;;6.12;78.99;95448.44;5014448;28;21173;-78
2020/12/17 06:12:48;;;;;;;56.10;17.50;;;;;;;6.04;79.27;95445.44;5014984;28;20599;-76
2020/12/17 06:15:18;;;;;;;55.00;17.23;;;;;;;6.01;79.66;95443.41;5014540;28;20671;-77
2020/12/17 06:17:53;;;;;;;51.53;17.20;;;;;;;5.94;79.71;95452.84;5014850;28;20703;-77
2020/12/17 06:20:20;;;;;;;43.40;16.93;;;;;;;5.98;79.84;95451.94;5013714;28;20619;-76
2020/12/17 06:22:55;;;;;;;49.23;16.10;;;;;;;6.10;80.01;95446.09;5014610;28;20607;-76
2020/12/17 06:25:21;;;;;;;49.63;16.57;;;;;;;6.12;79.71;95445.78;5007662;28;20654;-75
2020/12/17 06:27:48;;;;;;;44.53;16.63;;;;;;;6.09;79.07;95444.53;5014028;28;20626;-74
2020/12/17 06:30:21;;;;;;;44.47;16.00;;;;;;;6.24;78.21;95449.47;5013828;28;20681;-75
2020/12/17 06:32:46;;;;;;;49.75;16.00;;;;;;;6.14;78.52;95448.94;5011587;28;21045;-75
2020/12/17 06:35:45;;;;;;;44.10;16.80;;;;;;;6.22;78.45;95443.66;5029018;28;20177;-74
2020/12/17 06:38:15;;;;;;;50.57;16.70;;;;;;;6.12;78.40;95433.34;5014382;28;20157;-75
2020/12/17 06:40:41;;;;;;;41.00;15.37;;;;;;;6.15;78.38;95453.16;4996861;28;20626;-74
2020/12/17 06:43:31;;;;;;;43.80;16.20;;;;;;;6.18;78.60;95444.59;5012399;28;20576;-76
2020/12/17 06:45:58;;;;;;;46.13;16.67;;;;;;;6.25;78.07;95459.00;5013641;28;20209;-75
2020/12/17 06:48:43;;;;;;;48.33;16.93;;;;;;;6.23;78.10;95465.66;5028767;28;20674;-76
2020/12/17 06:51:30;;;;;;;49.50;17.27;;;;;;;6.29;78.58;95453.88;5013803;28;20606;-75
2020/12/17 06:53:55;;;;;;;49.13;18.90;;;;;;;6.21;78.57;95446.63;5013153;28;20575;-72
2020/12/17 06:56:21;;;;;;;48.93;16.83;;;;;;;6.17;78.49;95445.66;5013473;28;21023;-72
2020/12/17 06:58:46;;;;;;;49.17;17.03;;;;;;;6.31;78.47;95451.69;5013390;28;20555;-73
2020/12/17 07:01:26;;;;;;;43.90;17.17;;;;;;;6.23;78.56;95452.41;5013426;28;20618;-75
2020/12/17 07:03:52;;;;;;;42.27;15.87;;;;;;;6.23;78.52;95458.53;5013649;28;20204;-72
2020/12/17 07:06:24;;;;;;;46.87;17.17;;;;;;;6.10;78.46;95438.16;5012776;28;20638;-75
2020/12/17 07:08:54;;;;;;;44.07;16.70;;;;;;;6.27;78.56;95462.13;5013640;28;20169;-75
2020/12/17 07:11:45;;;;;;;46.27;16.30;;;;;;;6.39;77.69;95458.13;5013457;28;20666;-75
2020/12/17 07:14:23;;;;;;;48.97;18.60;;;;;;;6.42;78.13;95470.78;5013307;28;20980;-74
2020/12/17 07:16:50;;;;;;;43.83;17.47;;;;;;;6.47;77.73;95468.00;5012414;28;21134;-75
2020/12/17 07:19:40;;;;;;;37.47;16.20;;;;;;;6.42;77.99;95465.50;5013189;28;20572;-74
2020/12/17 07:22:07;;;;;;;45.57;16.30;;;;;;;6.30;78.51;95461.53;5013094;28;20611;-74
2020/12/17 07:24:38;;;;;;;45.67;17.43;;;;;;;6.51;77.41;95464.44;5013194;28;20623;-75
2020/12/17 07:27:08;;;;;;;48.00;18.13;;;;;;;6.48;77.86;95457.09;5012523;28;20646;-73
2020/12/17 07:29:50;;;;;;;56.03;19.70;;;;;;;6.33;77.83;95463.56;5013400;28;20618;-74
2020/12/17 07:32:26;;;;;;;49.57;17.07;;;;;;;6.44;78.00;95465.97;5012975;28;20727;-75
2020/12/17 07:34:52;;;;;;;51.50;17.87;;;;;;;6.44;78.21;95464.09;5012986;28;20571;-74
2020/12/17 07:37:51;;;;;;;55.77;19.03;;;;;;;6.66;77.38;95467.78;5012483;28;20607;-75
2020/12/17 07:40:19;;;;;;;40.03;16.40;;;;;;;6.72;76.79;95463.91;4970976;28;20632;-73
2020/12/17 07:43:13;;;;;;;53.57;16.80;;;;;;;6.70;76.61;95458.91;4971750;28;20605;-74
2020/12/17 07:45:52;;;;;;;45.67;17.73;;;;;;;6.77;76.52;95469.88;4968688;28;21235;-74
2020/12/17 07:48:44;;;;;;;49.90;19.00;;;;;;;6.54;77.65;95478.97;4968280;28;21226;-74
2020/12/17 07:51:15;;;;;;;47.37;16.67;;;;;;;6.61;77.00;95474.78;4893760;29;20741;-75
2020/12/17 07:53:41;;;;;;;43.50;16.00;;;;;;;6.62;77.06;95468.41;4894726;29;20605;-74
2020/12/17 07:56:07;;;;;;;41.23;16.37;;;;;;;6.69;76.75;95477.81;4878911;29;20621;-74
2020/12/17 07:58:36;;;;;;;43.13;16.97;;;;;;;6.66;77.35;95475.75;4894856;29;20739;-76
2020/12/17 08:01:02;;;;;;;44.63;17.27;;;;;;;6.51;77.77;95485.69;4894592;29;20640;-73
2020/12/17 08:03:28;;;;;;;50.50;18.07;;;;;;;6.59;77.85;95476.97;4894873;29;20700;-73
2020/12/17 08:06:06;;;;;;;42.60;16.73;;;;;;;6.70;77.57;95482.03;4879734;29;20704;-74
2020/12/17 08:08:31;;;;;;;54.00;18.83;;;;;;;6.59;77.40;95487.59;4895013;29;20205;-72
2020/12/17 08:10:58;;;;;;;52.77;19.03;;;;;;;6.62;77.74;95486.19;4895206;29;20656;-75
2020/12/17 08:13:24;;;;;;;50.20;20.00;;;;;;;6.70;76.96;95497.94;4894772;29;20572;-73
2020/12/17 08:15:56;;;;;;;49.43;19.80;;;;;;;6.70;76.92;95492.63;4897970;29;21144;-74
2020/12/17 08:18:26;;;;;;;66.57;21.97;;;;;;;6.55;77.44;95491.91;4917114;29;20611;-74
2020/12/17 08:21:03;;;;;;;57.83;20.63;;;;;;;6.51;78.08;95493.63;4932674;29;20615;-76
2020/12/17 08:23:29;;;;;;;47.17;19.47;;;;;;;6.67;77.49;95493.22;4917052;29;20602;-74
2020/12/17 08:25:55;;;;;;;49.70;18.37;;;;;;;6.77;77.23;95492.97;4932379;29;20699;-73
2020/12/17 08:28:21;;;;;;;48.40;18.80;;;;;;;6.72;76.84;95496.53;4968669;28;21154;-74
2020/12/17 08:30:47;;;;;;;57.00;19.07;;;;;;;6.77;77.34;95496.41;4992457;28;20585;-75
2020/12/17 08:33:12;;;;;;;57.93;20.23;;;;;;;6.76;76.71;95492.19;4992339;28;20671;-73
2020/12/17 08:35:38;;;;;;;50.67;20.33;;;;;;;6.85;76.86;95493.03;4991282;28;20730;-75
2020/12/17 08:38:06;;;;;;;64.70;22.10;;;;;;;6.82;76.92;95487.53;4993145;28;20216;-72
2020/12/17 08:40:32;;;;;;;62.40;20.67;;;;;;;6.70;77.41;95505.91;4992799;28;20193;-74
2020/12/17 08:43:09;;;;;;;56.27;20.47;;;;;;;6.73;77.23;95486.69;4975649;28;20640;-74
2020/12/17 08:45:37;;;;;;;50.87;20.53;;;;;;;6.83;76.72;95500.50;4991584;28;20205;-73
2020/12/17 08:48:02;;;;;;;45.77;20.70;;;;;;;6.80;76.99;95501.13;4975097;28;20580;-75
2020/12/17 08:50:28;;;;;;;56.10;22.00;;;;;;;6.78;77.49;95494.53;4990908;28;20655;-74
2020/12/17 08:52:53;;;;;;;68.63;22.37;;;;;;;6.89;76.46;95493.19;4975036;28;20205;-73
2020/12/17 08:55:19;;;;;;;57.00;21.10;;;;;;;6.94;76.32;95489.59;4992215;28;20640;-77
2020/12/17 08:57:46;;;;;;;51.47;21.17;;;;;;;6.84;76.05;95464.88;4974613;28;20190;-76
2020/12/17 09:00:16;;;;;;;56.27;22.13;;;;;;;6.80;76.73;95479.09;4990875;28;20170;-77
2020/12/17 09:02:42;;;;;;;62.40;20.80;;;;;;;9.15;94.40;95484.09;4991985;28;20643;-82
2020/12/17 09:05:10;;;;;;;50.87;20.10;;;;;;;10.86;89.61;95484.19;4992052;28;20632;-71
2020/12/17 09:07:40;;;;;;;49.23;19.57;;;;;;;9.43;85.20;95483.66;4991752;28;20183;-74
2020/12/17 09:10:09;;;;;;;58.23;22.23;;;;;;;8.41;78.29;95474.63;4991694;28;20673;-74
2020/12/17 09:12:35;;;;;;;54.40;20.33;;;;;;;7.89;74.75;95468.53;4990766;28;20588;-74
2020/12/17 09:15:08;;;;;;;62.23;23.40;;;;;;;7.83;74.26;95483.09;4992011;28;20638;-75
2020/12/17 09:17:33;;;;;;;61.17;22.53;;;;;;;7.64;74.65;95475.41;4994681;28;20189;-73
2020/12/17 09:19:59;;;;;;;64.07;23.80;;;;;;;7.47;74.70;95464.78;4995772;28;20646;-74
2020/12/17 09:22:36;;;;;;;63.37;24.07;;;;;;;7.15;76.40;95477.34;4994015;28;20620;-74
2020/12/17 09:25:01;;;;;;;64.50;24.13;;;;;;;7.25;76.09;95470.97;4995582;28;20209;-74
2020/12/17 09:27:28;;;;;;;65.73;24.83;;;;;;;7.15;75.96;95472.03;4995667;28;20710;-72
2020/12/17 09:30:04;;;;;;;76.07;26.37;;;;;;;7.08;76.79;95469.06;5005451;28;20699;-75
2020/12/17 09:32:30;;;;;;;70.40;25.27;;;;;;;7.31;75.87;95459.91;5011100;28;20614;-73
2020/12/17 09:35:12;;;;;;;62.87;23.60;;;;;;;7.39;75.43;95469.75;5014820;28;20663;-74
2020/12/17 09:37:38;;;;;;;85.73;25.53;;;;;;;7.23;75.62;95450.00;5014605;28;20185;-74
2020/12/17 09:40:09;;;;;;;71.63;25.07;;;;;;;7.20;75.82;95461.28;5012915;28;20607;-75
2020/12/17 09:42:34;;;;;;;78.03;24.63;;;;;;;7.34;75.67;95463.78;5015172;28;20971;-74
2020/12/17 09:45:16;;;;;;;67.10;22.47;;;;;;;7.23;76.20;95471.25;5013699;28;20658;-74
2020/12/17 09:47:42;;;;;;;62.03;25.13;;;;;;;7.23;75.62;95467.81;5013584;28;20169;-73
2020/12/17 09:50:11;;;;;;;70.00;26.43;;;;;;;7.26;75.96;95470.66;5014876;28;20702;-73
2020/12/17 09:52:37;;;;;;;82.40;27.50;;;;;;;7.27;75.95;95460.81;5014929;28;20314;-75
2020/12/17 09:55:02;;;;;;;76.07;29.03;;;;;;;7.08;76.57;95464.53;5015224;28;20575;-75
2020/12/17 09:57:38;;;;;;;69.83;26.40;;;;;;;7.24;76.01;95466.72;5014633;28;20264;-72
2020/12/17 10:00:05;;;;;;;68.30;26.73;;;;;;;7.30;76.13;95462.88;5014820;28;20179;-73
2020/12/17 10:02:31;;;;;;;72.00;27.33;;;;;;;7.21;76.24;95460.19;5014582;28;21051;-75
2020/12/17 10:04:56;;;;;;;78.27;27.73;;;;;;;7.14;76.46;95450.00;5014528;28;20611;-73
2020/12/17 10:07:22;;;;;;;70.47;27.70;;;;;;;7.35;75.88;95463.50;5014319;28;20220;-73
2020/12/17 10:09:47;;;;;;;79.17;28.17;;;;;;;7.28;76.05;95457.84;5014601;28;20288;-72
2020/12/17 10:12:13;;;;;;;74.57;27.80;;;;;;;7.31;76.26;95456.47;5014394;28;20184;-73
2020/12/17 10:14:38;;;;;;;69.33;27.50;;;;;;;7.37;76.05;95453.34;5014558;28;20575;-73
2020/12/17 10:17:04;;;;;;;73.37;29.03;;;;;;;7.48;75.76;95455.69;5013536;28;20215;-73
2020/12/17 10:19:29;;;;;;;77.70;28.73;;;;;;;7.42;76.24;95453.19;5014092;28;20380;-73
2020/12/17 10:21:56;;;;;;;77.90;27.33;;;;;;;7.29;76.37;95451.44;5012652;28;20189;-73
2020/12/17 10:24:22;;;;;;;76.10;29.43;;;;;;;7.27;76.51;95440.34;5013943;28;20266;-73
2020/12/17 10:26:48;;;;;;;72.80;29.23;;;;;;;7.38;76.04;95448.81;5013216;28;20685;-73
2020/12/17 10:29:13;;;;;;;79.93;29.57;;;;;;;7.44;75.84;95450.22;5013895;28;20181;-73
2020/12/17 10:31:39;;;;;;;75.37;30.83;;;;;;;7.36;76.10;95438.50;5012748;28;20224;-72
2020/12/17 10:34:06;;;;;;;78.77;30.20;;;;;;;7.46;76.01;95442.72;5014255;28;20172;-73
2020/12/17 10:36:36;;;;;;;78.40;28.93;;;;;;;7.64;74.92;95443.53;5014010;28;20173;-73
2020/12/17 10:39:02;;;;;;;80.93;30.60;;;;;;;7.53;75.37;95437.72;5013678;28;20591;-74
2020/12/17 10:41:27;;;;;;;82.07;27.77;;;;;;;7.59;75.30;95447.13;5012709;28;20638;-74
2020/12/17 10:43:53;;;;;;;93.37;31.80;;;;;;;7.61;75.34;95441.47;5013953;28;20637;-75
2020/12/17 10:46:19;;;;;;;82.93;29.70;;;;;;;7.60;75.12;95429.28;5013843;28;20173;-75
2020/12/17 10:48:45;;;;;;;86.97;31.70;;;;;;;7.37;75.53;95418.81;5013972;28;20264;-74
2020/12/17 10:51:13;;;;;;;80.33;29.97;;;;;;;7.54;75.62;95435.84;5012648;28;20185;-74
2020/12/17 10:53:39;;;;;;;75.40;29.97;;;;;;;7.59;75.20;95436.47;5013650;28;20702;-74
2020/12/17 10:56:06;;;;;;;78.10;30.57;;;;;;;7.56;75.89;95429.13;5013514;28;20596;-75
2020/12/17 10:58:32;;;;;;;73.07;29.87;;;;;;;7.74;75.23;95429.91;5013736;28;20177;-75
2020/12/17 11:00:57;;;;;;;88.73;31.10;;;;;;;7.71;74.91;95421.78;5013352;28;21149;-75
2020/12/17 11:03:23;;;;;;;76.83;31.27;;;;;;;7.81;75.42;95424.13;5013516;28;20173;-75
2020/12/17 11:05:48;;;;;;;93.27;30.53;;;;;;;7.85;74.48;95430.38;5013540;28;20251;-75
2020/12/17 11:08:14;;;;;;;89.50;33.17;;;;;;;7.55;75.89;95416.16;5013886;28;20188;-75
2020/12/17 11:10:39;;;;;;;83.00;30.60;;;;;;;7.65;75.44;95419.28;5013405;28;20169;-75
2020/12/17 11:13:05;;;;;;;83.60;30.23;;;;;;;7.61;75.59;95407.72;5013388;28;20595;-75
2020/12/17 11:15:30;;;;;;;93.70;34.00;;;;;;;7.74;75.70;95415.84;5013822;28;20652;-73
2020/12/17 11:17:56;;;;;;;88.47;33.33;;;;;;;7.74;75.72;95415.84;5013798;28;20189;-76
2020/12/17 11:20:21;;;;;;;89.43;30.20;;;;;;;7.90;74.52;95412.38;5013744;28;20636;-75
2020/12/17 11:22:47;;;;;;;82.93;30.00;;;;;;;8.09;73.55;95420.03;5013592;28;20212;-74
2020/12/17 11:25:12;;;;;;;91.77;32.87;;;;;;;7.75;74.81;95417.41;5013382;28;20244;-75
2020/12/17 11:27:38;;;;;;;89.93;30.33;;;;;;;7.72;75.09;95413.50;5012794;28;20307;-74